createdAt,value
2023-02-06T00:00:18.341Z,83.58
2023-02-06T00:01:18.330Z,83.79
2023-02-06T00:02:18.381Z,83.68
2023-02-06T00:03:18.307Z,83.58
2023-02-06T00:04:18.306Z,83.26
2023-02-06T00:05:18.355Z,83.37
2023-02-06T00:06:18.331Z,83.37
2023-02-06T00:07:18.262Z,82.84
2023-02-06T00:08:18.256Z,82.74
2023-02-06T00:09:18.239Z,82.74
2023-02-06T00:10:18.260Z,82.84
2023-02-06T00:11:18.249Z,83.05
2023-02-06T00:12:18.214Z,82.67
2023-02-06T00:13:18.201Z,83.40
2023-02-06T00:14:18.201Z,84.03
2023-02-06T00:15:18.211Z,83.47
2023-02-06T00:16:18.239Z,83.15
2023-02-06T00:17:18.170Z,82.95
2023-02-06T00:18:18.172Z,83.05
2023-02-06T00:19:18.143Z,82.78
2023-02-06T00:20:18.132Z,83.20
2023-02-06T00:21:18.141Z,83.15
2023-02-06T00:22:18.117Z,83.15
2023-02-06T00:23:18.150Z,83.05
2023-02-06T00:24:18.113Z,82.84
2023-02-06T00:25:18.094Z,83.05
2023-02-06T00:26:18.102Z,83.26
2023-02-06T00:27:18.060Z,83.58
2023-02-06T00:28:18.099Z,83.47
2023-02-06T00:29:18.047Z,83.15
2023-02-06T00:30:18.040Z,82.74
2023-02-06T00:31:18.127Z,82.67
2023-02-06T00:32:18.057Z,83.13
2023-02-06T00:33:19.306Z,83.54
2023-02-06T00:34:18.013Z,83.97
2023-02-06T00:35:17.991Z,84.39
2023-02-06T00:36:17.983Z,84.39
2023-02-06T00:37:17.972Z,84.08
2023-02-06T00:38:17.957Z,84.28
2023-02-06T00:39:17.948Z,84.18
2023-02-06T00:40:17.939Z,84.60
2023-02-06T00:41:17.928Z,84.39
2023-02-06T00:42:17.945Z,84.08
2023-02-06T00:43:17.918Z,83.76
2023-02-06T00:44:17.897Z,83.54
2023-02-06T00:45:17.896Z,83.54
2023-02-06T00:46:17.923Z,83.54
2023-02-06T00:47:17.873Z,83.65
2023-02-06T00:48:17.869Z,83.76
2023-02-06T00:49:17.850Z,83.76
2023-02-06T00:50:17.841Z,83.44
2023-02-06T00:51:17.842Z,83.76
2023-02-06T00:52:17.826Z,84.11
2023-02-06T00:53:17.808Z,84.22
2023-02-06T00:54:17.806Z,84.53
2023-02-06T00:55:17.791Z,84.64
2023-02-06T00:56:17.798Z,84.53
2023-02-06T00:57:17.780Z,84.64
2023-02-06T00:58:17.773Z,85.16
2023-02-06T00:59:17.756Z,85.02
2023-02-06T01:00:17.754Z,85.02
2023-02-06T01:01:17.875Z,84.81
2023-02-06T01:02:17.726Z,83.86
2023-02-06T01:03:17.736Z,83.59
2023-02-06T01:04:17.700Z,83.94
2023-02-06T01:05:17.691Z,84.47
2023-02-06T01:06:17.683Z,84.99
2023-02-06T01:07:17.690Z,85.20
2023-02-06T01:08:17.758Z,85.41
2023-02-06T01:09:17.644Z,85.41
2023-02-06T01:10:17.658Z,85.10
2023-02-06T01:11:17.698Z,85.20
2023-02-06T01:12:17.635Z,85.52
2023-02-06T01:13:17.617Z,85.52
2023-02-06T01:14:17.625Z,85.66
2023-02-06T01:15:17.588Z,85.77
2023-02-06T01:16:17.688Z,85.87
2023-02-06T01:17:17.586Z,85.87
2023-02-06T01:18:17.576Z,86.08
2023-02-06T01:19:17.546Z,86.29
2023-02-06T01:20:17.549Z,86.51
2023-02-06T01:21:17.640Z,86.51
2023-02-06T01:22:17.536Z,86.51
2023-02-06T01:23:17.505Z,86.40
2023-02-06T01:24:17.503Z,86.29
2023-02-06T01:25:17.493Z,86.40
2023-02-06T01:26:17.495Z,86.51
2023-02-06T01:27:17.471Z,86.57
2023-02-06T01:28:17.502Z,86.68
2023-02-06T01:29:17.456Z,86.78
2023-02-06T01:30:17.437Z,87.10
2023-02-06T01:31:17.515Z,86.88
2023-02-06T01:32:17.422Z,86.53
2023-02-06T01:33:17.409Z,86.32
2023-02-06T01:34:17.411Z,86.00
2023-02-06T01:35:17.432Z,85.13
2023-02-06T01:36:17.435Z,84.39
2023-02-06T01:37:17.360Z,84.08
2023-02-06T01:38:17.372Z,84.18
2023-02-06T01:39:17.351Z,84.39
2023-02-06T01:40:17.342Z,84.60
2023-02-06T01:41:17.354Z,84.81
2023-02-06T01:42:17.348Z,84.70
2023-02-06T01:43:17.320Z,84.91
2023-02-06T01:44:17.319Z,84.39
2023-02-06T01:45:17.292Z,83.97
2023-02-06T01:46:17.342Z,83.76
2023-02-06T01:47:17.262Z,83.44
2023-02-06T01:48:17.312Z,83.54
2023-02-06T01:49:17.250Z,83.80
2023-02-06T01:50:17.238Z,84.11
2023-02-06T01:51:17.274Z,84.42
2023-02-06T01:52:17.229Z,84.53
2023-02-06T01:53:17.203Z,84.42
2023-02-06T01:54:17.201Z,84.42
2023-02-06T01:55:17.228Z,84.84
2023-02-06T01:56:17.196Z,84.95
2023-02-06T01:57:17.165Z,84.84
2023-02-06T01:58:17.237Z,84.84
2023-02-06T01:59:17.140Z,85.06
2023-02-06T02:00:17.156Z,85.16
2023-02-06T02:01:17.197Z,85.23
2023-02-06T02:02:17.214Z,84.70
2023-02-06T02:03:17.109Z,84.49
2023-02-06T02:04:17.126Z,84.28
2023-02-06T02:05:17.102Z,84.28
2023-02-06T02:06:17.104Z,84.08
2023-02-06T02:07:17.068Z,83.69
2023-02-06T02:08:17.054Z,83.59
2023-02-06T02:09:17.066Z,83.90
2023-02-06T02:10:17.080Z,84.05
2023-02-06T02:11:17.084Z,84.36
2023-02-06T02:12:17.037Z,84.47
2023-02-06T02:13:17.013Z,84.78
2023-02-06T02:14:17.018Z,84.89
2023-02-06T02:15:17.012Z,84.89
2023-02-06T02:16:17.057Z,85.10
2023-02-06T02:17:16.968Z,85.10
2023-02-06T02:18:16.964Z,85.20
2023-02-06T02:19:16.966Z,85.20
2023-02-06T02:20:16.943Z,85.10
2023-02-06T02:21:16.972Z,85.41
2023-02-06T02:22:16.934Z,85.55
2023-02-06T02:23:16.971Z,85.77
2023-02-06T02:24:16.923Z,85.77
2023-02-06T02:25:22.913Z,85.87
2023-02-06T02:26:16.887Z,85.97
2023-02-06T02:27:16.893Z,85.87
2023-02-06T02:28:16.942Z,85.87
2023-02-06T02:29:16.857Z,85.97
2023-02-06T02:30:16.888Z,85.77
2023-02-06T02:31:16.869Z,86.08
2023-02-06T02:32:16.868Z,86.08
2023-02-06T02:33:16.836Z,86.08
2023-02-06T02:34:16.805Z,86.29
2023-02-06T02:35:16.835Z,86.19
2023-02-06T02:36:16.806Z,86.29
2023-02-06T02:37:16.778Z,86.65
2023-02-06T02:38:16.781Z,86.76
2023-02-06T02:39:16.756Z,86.96
2023-02-06T02:40:16.758Z,87.28
2023-02-06T02:41:16.737Z,87.38
2023-02-06T02:42:16.735Z,87.49
2023-02-06T02:43:16.760Z,87.60
2023-02-06T02:44:16.731Z,87.60
2023-02-06T02:45:16.697Z,87.49
2023-02-06T02:46:16.691Z,87.38
2023-02-06T02:47:16.674Z,87.28
2023-02-06T02:48:16.684Z,87.28
2023-02-06T02:49:16.666Z,87.38
2023-02-06T02:50:16.655Z,87.60
2023-02-06T02:51:16.661Z,87.70
2023-02-06T02:52:16.636Z,87.70
2023-02-06T02:53:16.647Z,87.70
2023-02-06T02:54:16.607Z,87.66
2023-02-06T02:55:16.599Z,87.55
2023-02-06T02:56:16.594Z,87.24
2023-02-06T02:57:16.588Z,87.24
2023-02-06T02:58:16.563Z,87.28
2023-02-06T02:59:16.553Z,87.38
2023-02-06T03:00:16.536Z,87.49
2023-02-06T03:01:16.654Z,87.91
2023-02-06T03:02:16.552Z,88.02
2023-02-06T03:03:16.521Z,87.76
2023-02-06T03:04:16.514Z,87.55
2023-02-06T03:05:16.512Z,87.35
2023-02-06T03:06:16.483Z,87.24
2023-02-06T03:07:16.490Z,87.24
2023-02-06T03:08:16.464Z,87.38
2023-02-06T03:09:16.459Z,87.45
2023-02-06T03:10:16.444Z,87.45
2023-02-06T03:11:16.451Z,87.60
2023-02-06T03:12:16.422Z,87.81
2023-02-06T03:13:16.445Z,88.02
2023-02-06T03:14:16.401Z,88.33
2023-02-06T03:15:16.408Z,88.44
2023-02-06T03:16:16.393Z,88.65
2023-02-06T03:17:16.412Z,88.54
2023-02-06T03:18:16.369Z,88.44
2023-02-06T03:19:16.353Z,88.33
2023-02-06T03:20:16.336Z,88.08
2023-02-06T03:21:16.342Z,87.98
2023-02-06T03:22:16.369Z,87.87
2023-02-06T03:23:16.318Z,87.87
2023-02-06T03:24:16.300Z,87.87
2023-02-06T03:25:16.301Z,87.76
2023-02-06T03:26:16.299Z,87.45
2023-02-06T03:27:16.304Z,87.03
2023-02-06T03:28:16.285Z,87.13
2023-02-06T03:29:16.257Z,87.13
2023-02-06T03:30:16.232Z,87.13
2023-02-06T03:31:16.274Z,86.93
2023-02-06T03:32:16.230Z,86.82
2023-02-06T03:33:16.227Z,87.03
2023-02-06T03:34:16.199Z,87.03
2023-02-06T03:35:16.207Z,86.88
2023-02-06T03:36:16.186Z,86.82
2023-02-06T03:37:16.217Z,86.78
2023-02-06T03:38:16.171Z,86.78
2023-02-06T03:39:16.164Z,86.57
2023-02-06T03:40:16.163Z,86.15
2023-02-06T03:41:16.148Z,85.94
2023-02-06T03:42:16.143Z,85.73
2023-02-06T03:43:16.117Z,85.94
2023-02-06T03:44:16.131Z,86.04
2023-02-06T03:45:16.135Z,86.15
2023-02-06T03:46:16.191Z,86.15
2023-02-06T03:47:16.087Z,86.61
2023-02-06T03:48:16.060Z,86.71
2023-02-06T03:49:16.064Z,86.82
2023-02-06T03:50:16.047Z,87.10
2023-02-06T03:51:16.035Z,87.20
2023-02-06T03:52:16.038Z,87.10
2023-02-06T03:53:16.021Z,86.78
2023-02-06T03:54:16.025Z,86.46
2023-02-06T03:55:15.995Z,86.25
2023-02-06T03:56:15.985Z,86.15
2023-02-06T03:57:15.996Z,86.04
2023-02-06T03:58:15.986Z,85.52
2023-02-06T03:59:16.000Z,85.73
2023-02-06T04:00:15.955Z,85.62
2023-02-06T04:01:16.047Z,85.37
2023-02-06T04:02:15.974Z,85.16
2023-02-06T04:03:15.984Z,85.16
2023-02-06T04:04:15.920Z,85.27
2023-02-06T04:05:15.908Z,85.27
2023-02-06T04:06:15.885Z,84.74
2023-02-06T04:07:15.914Z,84.84
2023-02-06T04:08:15.874Z,84.74
2023-02-06T04:09:15.865Z,84.64
2023-02-06T04:10:15.868Z,84.53
2023-02-06T04:11:15.843Z,84.84
2023-02-06T04:12:15.891Z,84.84
2023-02-06T04:13:15.824Z,84.42
2023-02-06T04:14:15.826Z,84.74
2023-02-06T04:15:15.851Z,84.95
2023-02-06T04:16:15.871Z,85.02
2023-02-06T04:17:31.312Z,84.81
2023-02-06T04:18:15.792Z,84.60
2023-02-06T04:19:15.800Z,84.49
2023-02-06T04:20:15.758Z,84.49
2023-02-06T04:21:15.777Z,84.18
2023-02-06T04:22:15.743Z,84.18
2023-02-06T04:23:15.748Z,84.49
2023-02-06T04:24:15.744Z,84.70
2023-02-06T04:25:15.715Z,84.49
2023-02-06T04:26:15.702Z,84.49
2023-02-06T04:27:15.741Z,84.81
2023-02-06T04:28:15.775Z,84.60
2023-02-06T04:29:15.678Z,84.49
2023-02-06T04:30:15.712Z,84.60
2023-02-06T04:31:15.851Z,84.39
2023-02-06T04:32:15.662Z,84.28
2023-02-06T04:33:15.656Z,84.70
2023-02-06T04:34:15.632Z,84.91
2023-02-06T04:35:15.664Z,84.91
2023-02-06T04:36:15.600Z,84.91
2023-02-06T04:37:15.614Z,84.91
2023-02-06T04:38:15.607Z,84.91
2023-02-06T04:39:15.586Z,85.02
2023-02-06T04:40:15.576Z,85.13
2023-02-06T04:41:15.564Z,85.37
2023-02-06T04:42:15.566Z,85.48
2023-02-06T04:43:15.544Z,85.58
2023-02-06T04:44:15.554Z,85.55
2023-02-06T04:45:15.521Z,85.65
2023-02-06T04:46:15.532Z,85.65
2023-02-06T04:47:15.550Z,85.86
2023-02-06T04:48:15.485Z,86.07
2023-02-06T04:49:15.495Z,86.18
2023-02-06T04:50:15.468Z,85.82
2023-02-06T04:51:15.460Z,85.96
2023-02-06T04:52:15.454Z,85.96
2023-02-06T04:53:15.447Z,86.18
2023-02-06T04:54:15.448Z,86.38
2023-02-06T04:55:15.422Z,86.70
2023-02-06T04:56:15.420Z,86.70
2023-02-06T04:57:15.410Z,86.49
2023-02-06T04:58:15.397Z,86.55
2023-02-06T04:59:15.387Z,86.66
2023-02-06T05:00:15.381Z,86.70
2023-02-06T05:01:15.396Z,87.02
2023-02-06T05:02:15.402Z,87.23
2023-02-06T05:03:15.350Z,87.54
2023-02-06T05:04:15.336Z,87.75
2023-02-06T05:05:15.349Z,87.82
2023-02-06T05:06:15.309Z,88.02
2023-02-06T05:07:15.327Z,88.24
2023-02-06T05:08:15.294Z,88.55
2023-02-06T05:09:15.276Z,88.87
2023-02-06T05:10:15.295Z,89.07
2023-02-06T05:11:15.259Z,89.29
2023-02-06T05:12:15.257Z,89.35
2023-02-06T05:13:15.231Z,89.35
2023-02-06T05:14:15.237Z,89.35
2023-02-06T05:15:15.236Z,89.35
2023-02-06T05:16:15.227Z,89.35
2023-02-06T05:17:15.231Z,89.67
2023-02-06T05:18:15.198Z,89.87
2023-02-06T05:19:15.197Z,89.98
2023-02-06T05:20:15.178Z,90.19
2023-02-06T05:21:15.178Z,90.05
2023-02-06T05:22:15.134Z,89.84
2023-02-06T05:23:15.139Z,89.73
2023-02-06T05:24:15.127Z,89.94
2023-02-06T05:25:15.157Z,90.47
2023-02-06T05:26:15.102Z,90.47
2023-02-06T05:27:15.106Z,90.78
2023-02-06T05:28:15.141Z,90.99
2023-02-06T05:29:15.072Z,90.99
2023-02-06T05:30:15.107Z,90.99
2023-02-06T05:31:15.194Z,91.09
2023-02-06T05:32:15.089Z,91.20
2023-02-06T05:33:15.038Z,91.45
2023-02-06T05:34:15.027Z,91.87
2023-02-06T05:35:15.019Z,92.29
2023-02-06T05:36:15.002Z,92.54
2023-02-06T05:37:15.007Z,92.86
2023-02-06T05:38:14.996Z,93.18
2023-02-06T05:39:15.002Z,93.49
2023-02-06T05:40:14.995Z,93.70
2023-02-06T05:41:14.963Z,93.76
2023-02-06T05:42:14.937Z,93.76
2023-02-06T05:43:14.952Z,93.55
2023-02-06T05:44:14.936Z,93.66
2023-02-06T05:45:14.978Z,93.66
2023-02-06T05:46:14.956Z,93.76
2023-02-06T05:47:14.902Z,94.12
2023-02-06T05:48:14.887Z,94.33
2023-02-06T05:49:14.880Z,94.65
2023-02-06T05:50:14.865Z,94.96
2023-02-06T05:51:14.927Z,95.17
2023-02-06T05:52:14.843Z,95.28
2023-02-06T05:53:14.873Z,95.28
2023-02-06T05:54:14.828Z,95.17
2023-02-06T05:55:14.829Z,95.38
2023-02-06T05:56:14.805Z,95.70
2023-02-06T05:57:14.801Z,95.90
2023-02-06T05:58:14.798Z,95.80
2023-02-06T05:59:14.802Z,95.80
2023-02-06T06:00:14.777Z,95.90
2023-02-06T06:01:14.765Z,95.90
2023-02-06T06:02:14.757Z,96.12
2023-02-06T06:03:14.791Z,96.33
2023-02-06T06:04:14.875Z,96.53
2023-02-06T06:05:14.736Z,96.64
2023-02-06T06:06:14.706Z,96.75
2023-02-06T06:07:14.742Z,96.75
2023-02-06T06:08:14.697Z,96.75
2023-02-06T06:09:14.719Z,96.75
2023-02-06T06:10:14.666Z,96.85
2023-02-06T06:11:14.675Z,96.81
2023-02-06T06:12:14.669Z,96.49
2023-02-06T06:13:14.654Z,96.43
2023-02-06T06:14:14.646Z,96.53
2023-02-06T06:15:14.597Z,96.75
2023-02-06T06:16:14.567Z,97.06
2023-02-06T06:17:14.627Z,97.06
2023-02-06T06:18:14.608Z,97.17
2023-02-06T06:19:14.546Z,97.27
2023-02-06T06:20:14.539Z,97.33
2023-02-06T06:21:14.519Z,97.44
2023-02-06T06:22:14.508Z,97.44
2023-02-06T06:23:14.516Z,97.54
2023-02-06T06:24:14.489Z,97.54
2023-02-06T06:25:14.491Z,97.64
2023-02-06T06:26:14.468Z,97.75
2023-02-06T06:27:14.533Z,97.86
2023-02-06T06:28:14.470Z,97.86
2023-02-06T06:29:14.441Z,97.96
2023-02-06T06:30:14.478Z,98.07
2023-02-06T06:31:14.460Z,98.07
2023-02-06T06:32:14.420Z,98.07
2023-02-06T06:33:14.402Z,98.17
2023-02-06T06:34:14.417Z,98.02
2023-02-06T06:35:14.382Z,98.13
2023-02-06T06:36:14.638Z,98.13
2023-02-06T06:37:14.338Z,97.92
2023-02-06T06:38:14.362Z,97.81
2023-02-06T06:39:14.332Z,97.71
2023-02-06T06:40:14.312Z,97.60
2023-02-06T06:41:14.302Z,97.60
2023-02-06T06:42:14.312Z,97.50
2023-02-06T06:43:14.306Z,97.50
2023-02-06T06:44:14.275Z,97.45
2023-02-06T06:45:14.293Z,97.35
2023-02-06T06:46:14.291Z,97.29
2023-02-06T06:47:14.244Z,97.39
2023-02-06T06:48:14.254Z,97.39
2023-02-06T06:49:14.218Z,97.60
2023-02-06T06:50:14.209Z,97.92
2023-02-06T06:51:14.243Z,98.23
2023-02-06T06:52:24.428Z,98.34
2023-02-06T06:53:14.193Z,98.34
2023-02-06T06:54:14.208Z,98.23
2023-02-06T06:55:14.170Z,98.13
2023-02-06T06:56:14.178Z,98.13
2023-02-06T06:57:14.144Z,98.23
2023-02-06T06:58:14.154Z,98.34
2023-02-06T06:59:14.128Z,98.55
2023-02-06T07:00:14.121Z,98.55
2023-02-06T07:01:14.131Z,98.65
2023-02-06T07:02:14.099Z,98.65
2023-02-06T07:03:14.161Z,98.75
2023-02-06T07:04:14.076Z,98.75
2023-02-06T07:05:14.068Z,98.65
2023-02-06T07:06:14.088Z,98.65
2023-02-06T07:07:14.077Z,98.65
2023-02-06T07:08:14.059Z,98.65
2023-02-06T07:09:14.036Z,98.75
2023-02-06T07:10:14.034Z,98.86
2023-02-06T07:11:14.066Z,98.97
2023-02-06T07:12:14.049Z,99.07
2023-02-06T07:13:13.990Z,99.07
2023-02-06T07:14:13.986Z,98.97
2023-02-06T07:15:13.967Z,98.82
2023-02-06T07:16:14.025Z,98.71
2023-02-06T07:17:13.950Z,98.39
2023-02-06T07:18:13.979Z,98.23
2023-02-06T07:19:13.925Z,98.23
2023-02-06T07:20:13.922Z,98.13
2023-02-06T07:21:13.930Z,98.08
2023-02-06T07:22:13.946Z,98.29
2023-02-06T07:23:13.931Z,98.29
2023-02-06T07:24:13.979Z,98.34
2023-02-06T07:25:13.872Z,98.34
2023-02-06T07:26:13.862Z,98.44
2023-02-06T07:27:13.865Z,98.65
2023-02-06T07:28:13.902Z,98.75
2023-02-06T07:29:13.826Z,98.97
2023-02-06T07:30:13.841Z,99.03
2023-02-06T07:31:13.828Z,99.03
2023-02-06T07:32:13.830Z,98.82
2023-02-06T07:33:13.821Z,98.82
2023-02-06T07:34:13.790Z,98.77
2023-02-06T07:35:13.794Z,98.88
2023-02-06T07:36:13.783Z,98.88
2023-02-06T07:37:13.775Z,98.67
2023-02-06T07:38:13.767Z,98.41
2023-02-06T07:39:13.755Z,97.78
2023-02-06T07:40:13.769Z,97.36
2023-02-06T07:41:13.710Z,97.16
2023-02-06T07:42:13.712Z,96.99
2023-02-06T07:43:13.720Z,96.94
2023-02-06T07:44:13.688Z,97.05
2023-02-06T07:45:13.676Z,97.16
2023-02-06T07:46:13.752Z,97.16
2023-02-06T07:47:13.689Z,97.11
2023-02-06T07:48:13.695Z,97.00
2023-02-06T07:49:13.667Z,96.75
2023-02-06T07:50:13.627Z,96.55
2023-02-06T07:51:13.637Z,96.44
2023-02-06T07:52:13.639Z,96.02
2023-02-06T07:53:13.622Z,95.76
2023-02-06T07:54:13.593Z,95.66
2023-02-06T07:55:13.588Z,95.35
2023-02-06T07:56:13.607Z,95.14
2023-02-06T07:57:13.555Z,94.93
2023-02-06T07:58:13.596Z,94.72
2023-02-06T07:59:13.543Z,94.68
2023-02-06T08:00:13.531Z,94.68
2023-02-06T08:01:13.556Z,94.32
2023-02-06T08:02:13.521Z,93.80
2023-02-06T08:03:13.519Z,93.38
2023-02-06T08:04:13.624Z,93.17
2023-02-06T08:05:13.484Z,93.07
2023-02-06T08:06:13.472Z,93.07
2023-02-06T08:07:13.457Z,93.27
2023-02-06T08:08:13.479Z,93.48
2023-02-06T08:09:13.489Z,93.52
2023-02-06T08:10:13.470Z,93.38
2023-02-06T08:11:13.440Z,93.27
2023-02-06T08:12:13.410Z,93.38
2023-02-06T08:13:13.414Z,93.59
2023-02-06T08:14:13.389Z,93.59
2023-02-06T08:15:13.397Z,93.48
2023-02-06T08:16:13.446Z,93.48
2023-02-06T08:17:13.368Z,93.59
2023-02-06T08:18:13.391Z,93.80
2023-02-06T08:19:13.359Z,93.59
2023-02-06T08:20:13.389Z,93.59
2023-02-06T08:21:13.332Z,93.59
2023-02-06T08:22:13.313Z,93.70
2023-02-06T08:23:13.328Z,93.80
2023-02-06T08:24:13.301Z,93.70
2023-02-06T08:25:13.295Z,93.27
2023-02-06T08:26:19.976Z,93.02
2023-02-06T08:27:15.916Z,93.23
2023-02-06T08:28:13.270Z,93.33
2023-02-06T08:29:13.225Z,93.33
2023-02-06T08:30:13.233Z,93.44
2023-02-06T08:31:13.288Z,93.40
2023-02-06T08:32:13.209Z,93.19
2023-02-06T08:33:13.185Z,92.98
2023-02-06T08:34:13.187Z,92.98
2023-02-06T08:35:13.177Z,92.66
2023-02-06T08:36:13.175Z,92.41
2023-02-06T08:37:13.367Z,92.00
2023-02-06T08:38:13.175Z,91.58
2023-02-06T08:39:13.138Z,91.37
2023-02-06T08:40:13.136Z,91.47
2023-02-06T08:41:13.100Z,91.58
2023-02-06T08:42:13.099Z,91.83
2023-02-06T08:43:13.101Z,91.89
2023-02-06T08:44:13.073Z,92.04
2023-02-06T08:45:13.083Z,92.10
2023-02-06T08:46:13.130Z,92.25
2023-02-06T08:47:13.052Z,92.21
2023-02-06T08:48:13.101Z,92.00
2023-02-06T08:49:13.029Z,92.21
2023-02-06T08:50:13.014Z,92.10
2023-02-06T08:51:12.999Z,91.79
2023-02-06T08:52:12.998Z,91.69
2023-02-06T08:53:12.997Z,91.69
2023-02-06T08:54:12.997Z,91.79
2023-02-06T08:55:12.974Z,91.79
2023-02-06T08:56:12.973Z,91.79
2023-02-06T08:57:12.947Z,91.58
2023-02-06T08:58:12.951Z,91.47
2023-02-06T08:59:12.920Z,91.47
2023-02-06T09:00:12.925Z,91.47
2023-02-06T09:01:12.923Z,91.43
2023-02-06T09:02:12.942Z,91.43
2023-02-06T09:03:12.884Z,91.43
2023-02-06T09:04:12.878Z,91.43
2023-02-06T09:05:12.875Z,91.33
2023-02-06T09:06:12.880Z,91.33
2023-02-06T09:07:12.846Z,91.22
2023-02-06T09:08:12.839Z,91.22
2023-02-06T09:09:12.844Z,91.22
2023-02-06T09:10:26.809Z,91.12
2023-02-06T09:11:12.829Z,91.22
2023-02-06T09:12:12.809Z,91.33
2023-02-06T09:13:12.785Z,91.33
2023-02-06T09:14:12.791Z,91.43
2023-02-06T09:15:12.758Z,91.54
2023-02-06T09:16:12.785Z,91.64
2023-02-06T09:17:12.732Z,91.75
2023-02-06T09:18:12.725Z,91.50
2023-02-06T09:19:12.753Z,91.18
2023-02-06T09:20:12.709Z,91.02
2023-02-06T09:21:12.703Z,90.87
2023-02-06T09:22:12.706Z,90.87
2023-02-06T09:23:12.673Z,90.87
2023-02-06T09:24:12.686Z,91.08
2023-02-06T09:25:12.650Z,91.29
2023-02-06T09:26:12.647Z,91.50
2023-02-06T09:27:12.647Z,91.50
2023-02-06T09:28:12.625Z,91.39
2023-02-06T09:29:12.617Z,91.29
2023-02-06T09:30:12.616Z,91.39
2023-02-06T09:31:12.668Z,91.50
2023-02-06T09:32:12.584Z,91.50
2023-02-06T09:33:12.571Z,91.64
2023-02-06T09:34:12.634Z,91.75
2023-02-06T09:35:12.551Z,91.85
2023-02-06T09:36:12.609Z,91.96
2023-02-06T09:37:12.546Z,92.16
2023-02-06T09:38:12.604Z,92.16
2023-02-06T09:39:12.530Z,92.16
2023-02-06T09:40:12.532Z,92.06
2023-02-06T09:41:12.494Z,92.16
2023-02-06T09:42:12.498Z,92.06
2023-02-06T09:43:12.474Z,92.06
2023-02-06T09:44:12.468Z,92.06
2023-02-06T09:45:12.459Z,92.16
2023-02-06T09:46:12.482Z,92.16
2023-02-06T09:47:12.444Z,92.16
2023-02-06T09:48:12.426Z,92.16
2023-02-06T09:49:12.437Z,92.16
2023-02-06T09:50:12.409Z,92.06
2023-02-06T09:51:12.385Z,91.96
2023-02-06T09:52:12.393Z,92.06
2023-02-06T09:53:12.359Z,92.16
2023-02-06T09:54:12.392Z,92.37
2023-02-06T09:55:12.353Z,92.37
2023-02-06T09:56:12.385Z,92.47
2023-02-06T09:57:12.380Z,92.47
2023-02-06T09:58:12.322Z,92.47
2023-02-06T09:59:12.327Z,92.47
2023-02-06T10:00:12.312Z,92.37
2023-02-06T10:01:12.286Z,92.47
2023-02-06T10:02:12.307Z,92.47
2023-02-06T10:03:12.271Z,92.47
2023-02-06T10:04:12.331Z,92.69
2023-02-06T10:05:12.240Z,92.69
2023-02-06T10:06:12.255Z,92.69
2023-02-06T10:07:12.257Z,92.69
2023-02-06T10:08:12.238Z,92.69
2023-02-06T10:09:12.249Z,92.79
2023-02-06T10:10:12.218Z,92.79
2023-02-06T10:11:12.192Z,92.79
2023-02-06T10:12:12.191Z,92.69
2023-02-06T10:13:12.164Z,92.69
2023-02-06T10:14:12.174Z,92.79
2023-02-06T10:15:12.153Z,92.79
2023-02-06T10:16:12.246Z,92.90
2023-02-06T10:17:12.152Z,92.90
2023-02-06T10:18:12.135Z,92.94
2023-02-06T10:19:12.152Z,93.04
2023-02-06T10:20:12.130Z,93.15
2023-02-06T10:21:12.106Z,93.21
2023-02-06T10:22:12.076Z,93.21
2023-02-06T10:23:12.064Z,93.10
2023-02-06T10:24:12.067Z,93.00
2023-02-06T10:25:12.193Z,93.00
2023-02-06T10:26:12.051Z,93.10
2023-02-06T10:27:12.044Z,93.10
2023-02-06T10:28:12.069Z,93.21
2023-02-06T10:29:12.028Z,93.31
2023-02-06T10:30:11.995Z,93.31
2023-02-06T10:31:12.057Z,93.31
2023-02-06T10:32:12.014Z,93.21
2023-02-06T10:33:24.808Z,93.10
2023-02-06T10:34:11.987Z,93.00
2023-02-06T10:35:11.943Z,93.10
2023-02-06T10:36:11.940Z,93.00
2023-02-06T10:37:11.933Z,92.85
2023-02-06T10:38:11.924Z,92.75
2023-02-06T10:39:11.940Z,92.65
2023-02-06T10:40:11.930Z,92.54
2023-02-06T10:41:11.889Z,92.33
2023-02-06T10:42:11.882Z,92.33
2023-02-06T10:43:11.873Z,92.47
2023-02-06T10:44:11.881Z,92.54
2023-02-06T10:45:19.618Z,92.69
2023-02-06T10:46:11.854Z,92.69
2023-02-06T10:47:11.836Z,92.69
2023-02-06T10:48:11.818Z,92.69
2023-02-06T10:49:11.861Z,92.69
2023-02-06T10:50:11.820Z,92.69
2023-02-06T10:51:11.804Z,92.69
2023-02-06T10:52:11.799Z,92.47
2023-02-06T10:53:11.781Z,92.16
2023-02-06T10:54:11.771Z,91.91
2023-02-06T10:55:11.754Z,91.75
2023-02-06T10:56:11.742Z,91.64
2023-02-06T10:57:11.744Z,91.64
2023-02-06T10:58:11.746Z,91.54
2023-02-06T10:59:11.744Z,91.50
2023-02-06T11:00:11.728Z,91.50
2023-02-06T11:01:25.196Z,91.50
2023-02-06T11:02:11.730Z,91.50
2023-02-06T11:03:11.681Z,91.39
2023-02-06T11:04:11.680Z,91.18
2023-02-06T11:05:11.648Z,91.29
2023-02-06T11:06:11.638Z,91.29
2023-02-06T11:07:11.632Z,91.08
2023-02-06T11:08:11.630Z,90.97
2023-02-06T11:09:11.639Z,90.77
2023-02-06T11:10:11.601Z,90.66
2023-02-06T11:11:11.606Z,90.66
2023-02-06T11:12:11.580Z,90.77
2023-02-06T11:13:11.599Z,90.56
2023-02-06T11:14:11.571Z,90.56
2023-02-06T11:15:11.564Z,90.56
2023-02-06T11:16:11.563Z,90.77
2023-02-06T11:17:11.528Z,90.66
2023-02-06T11:18:11.560Z,90.45
2023-02-06T11:19:11.540Z,90.45
2023-02-06T11:20:11.494Z,90.25
2023-02-06T11:21:11.489Z,90.14
2023-02-06T11:22:11.501Z,90.25
2023-02-06T11:23:11.497Z,90.35
2023-02-06T11:24:11.452Z,90.35
2023-02-06T11:25:11.456Z,90.25
2023-02-06T11:26:11.435Z,90.03
2023-02-06T11:27:11.446Z,89.72
2023-02-06T11:28:11.506Z,89.31
2023-02-06T11:29:11.440Z,89.10
2023-02-06T11:30:11.398Z,89.10
2023-02-06T11:31:11.389Z,89.10
2023-02-06T11:32:11.376Z,88.99
2023-02-06T11:33:11.384Z,89.10
2023-02-06T11:34:11.386Z,89.31
2023-02-06T11:35:11.351Z,89.16
2023-02-06T11:36:11.430Z,89.41
2023-02-06T11:37:11.327Z,89.16
2023-02-06T11:38:11.321Z,88.85
2023-02-06T11:39:11.326Z,88.64
2023-02-06T11:40:11.313Z,88.53
2023-02-06T11:41:11.545Z,88.43
2023-02-06T11:42:11.269Z,88.29
2023-02-06T11:43:11.357Z,87.87
2023-02-06T11:44:11.272Z,87.66
2023-02-06T11:45:11.253Z,87.76
2023-02-06T11:46:11.325Z,87.97
2023-02-06T11:47:11.234Z,87.76
2023-02-06T11:48:11.348Z,87.52
2023-02-06T11:49:11.219Z,86.99
2023-02-06T11:50:11.192Z,86.68
2023-02-06T11:51:11.197Z,86.58
2023-02-06T11:52:11.168Z,86.16
2023-02-06T11:53:11.175Z,85.91
2023-02-06T11:54:11.186Z,85.60
2023-02-06T11:55:11.158Z,85.29
2023-02-06T11:56:11.168Z,84.98
2023-02-06T11:57:11.124Z,84.77
2023-02-06T11:58:11.140Z,84.56
2023-02-06T11:59:11.238Z,84.45
2023-02-06T12:00:11.094Z,87.99
2023-02-06T12:01:11.081Z,85.50
2023-02-06T12:02:11.100Z,85.39
2023-02-06T12:03:11.224Z,84.98
2023-02-06T12:04:11.081Z,84.66
2023-02-06T12:05:11.054Z,84.45
2023-02-06T12:06:11.031Z,83.90
2023-02-06T12:07:11.022Z,83.48
2023-02-06T12:08:11.003Z,82.96
2023-02-06T12:09:11.018Z,83.17
2023-02-06T12:10:10.982Z,83.06
2023-02-06T12:11:12.462Z,83.06
2023-02-06T12:12:10.973Z,82.75
2023-02-06T12:13:10.970Z,82.20
2023-02-06T12:14:10.977Z,82.40
2023-02-06T12:15:45.610Z,81.98
2023-02-06T12:16:10.938Z,81.60
2023-02-06T12:17:10.930Z,81.96
2023-02-06T12:18:10.917Z,82.37
2023-02-06T12:19:10.937Z,82.68
2023-02-06T12:20:10.906Z,82.79
2023-02-06T12:21:10.883Z,82.72
2023-02-06T12:22:10.929Z,82.82
2023-02-06T12:23:10.860Z,83.04
2023-02-06T12:24:10.874Z,83.45
2023-02-06T12:25:10.830Z,83.76
2023-02-06T12:26:10.885Z,83.97
2023-02-06T12:27:10.838Z,83.56
2023-02-06T12:28:10.905Z,83.56
2023-02-06T12:29:10.809Z,83.66
2023-02-06T12:30:10.873Z,83.56
2023-02-06T12:31:10.880Z,83.25
2023-02-06T12:32:10.765Z,83.18
2023-02-06T12:33:10.765Z,83.49
2023-02-06T12:34:10.750Z,83.70
2023-02-06T12:35:10.722Z,83.91
2023-02-06T12:36:10.714Z,84.53
2023-02-06T12:37:10.744Z,84.53
2023-02-06T12:38:10.684Z,84.43
2023-02-06T12:39:10.695Z,84.01
2023-02-06T12:40:10.781Z,84.22
2023-02-06T12:41:10.676Z,84.22
2023-02-06T12:42:10.646Z,84.12
2023-02-06T12:43:10.655Z,84.43
2023-02-06T12:44:10.625Z,84.53
2023-02-06T12:45:10.648Z,84.22
2023-02-06T12:46:10.752Z,84.08
2023-02-06T12:47:10.601Z,84.28
2023-02-06T12:48:12.200Z,83.87
2023-02-06T12:49:10.586Z,83.87
2023-02-06T12:50:10.613Z,83.87
2023-02-06T12:51:10.549Z,83.31
2023-02-06T12:52:10.557Z,83.42